sensor_id;sensor_type;location;lat;lon;timestamp;pressure;altitude;pressure_sealevel;temperature;humidity
56514;BME280;62152;52.078;8.414;2023-03-23T00:03:54;98987.63;;;18.67;52.96
56514;BME280;62152;52.078;8.414;2023-03-23T00:07:55;98967.22;;;18.68;52.85
56514;BME280;62152;52.078;8.414;2023-03-23T00:11:57;98991.94;;;18.68;52.71
56514;BME280;62152;52.078;8.414;2023-03-23T00:15:58;98988.41;;;18.68;52.83
56514;BME280;62152;52.078;8.414;2023-03-23T00:20:00;98964.06;;;18.66;52.70
56514;BME280;62152;52.078;8.414;2023-03-23T00:24:04;98961.31;;;18.66;53.04
56514;BME280;62152;52.078;8.414;2023-03-23T00:28:08;98964.06;;;18.66;52.80
56514;BME280;62152;52.078;8.414;2023-03-23T00:32:09;98958.56;;;18.66;52.78
56514;BME280;62152;52.078;8.414;2023-03-23T00:36:11;98947.59;;;18.66;53.19
56514;BME280;62152;52.078;8.414;2023-03-23T00:40:13;98950.72;;;18.65;53.06
56514;BME280;62152;52.078;8.414;2023-03-23T00:44:16;98946.00;;;18.65;52.74
56514;BME280;62152;52.078;8.414;2023-03-23T00:48:18;98935.00;;;18.65;52.96
56514;BME280;62152;52.078;8.414;2023-03-23T00:52:19;98937.75;;;18.65;52.85
56514;BME280;62152;52.078;8.414;2023-03-23T00:56:20;98936.19;;;18.64;53.32
56514;BME280;62152;52.078;8.414;2023-03-23T01:00:22;98929.50;;;18.65;52.79
56514;BME280;62152;52.078;8.414;2023-03-23T01:04:23;98931.88;;;18.63;53.37
56514;BME280;62152;52.078;8.414;2023-03-23T01:08:25;98922.47;;;18.64;53.07
56514;BME280;62152;52.078;8.414;2023-03-23T01:12:26;98911.47;;;18.64;53.18
56514;BME280;62152;52.078;8.414;2023-03-23T01:16:28;98914.63;;;18.63;53.20
56514;BME280;62152;52.078;8.414;2023-03-23T01:20:29;98909.91;;;18.63;52.95
56514;BME280;62152;52.078;8.414;2023-03-23T01:24:30;98907.16;;;18.63;52.71
56514;BME280;62152;52.078;8.414;2023-03-23T01:28:33;98914.63;;;18.63;53.16
56514;BME280;62152;52.078;8.414;2023-03-23T01:32:35;98895.00;;;18.64;53.36
56514;BME280;62152;52.078;8.414;2023-03-23T01:36:36;98918.16;;;18.63;52.79
56514;BME280;62152;52.078;8.414;2023-03-23T01:40:37;98904.44;;;18.63;52.66
56514;BME280;62152;52.078;8.414;2023-03-23T01:49:34;98900.13;;;18.62;52.90
56514;BME280;62152;52.078;8.414;2023-03-23T01:53:42;98899.34;;;18.62;52.75
56514;BME280;62152;52.078;8.414;2023-03-23T01:57:47;98897.38;;;18.62;53.03
56514;BME280;62152;52.078;8.414;2023-03-23T02:01:50;98892.66;;;18.63;53.10
56514;BME280;62152;52.078;8.414;2023-03-23T02:05:53;98889.13;;;18.62;52.73
56514;BME280;62152;52.078;8.414;2023-03-23T02:10:08;98889.53;;;18.61;53.27
56514;BME280;62152;52.078;8.414;2023-03-23T02:14:10;98878.56;;;18.61;53.13
56514;BME280;62152;52.078;8.414;2023-03-23T02:18:27;98876.59;;;18.61;53.01
56514;BME280;62152;52.078;8.414;2023-03-23T02:23:07;98878.16;;;18.62;52.74
56514;BME280;62152;52.078;8.414;2023-03-23T02:27:36;98867.56;;;18.61;52.66
56514;BME280;62152;52.078;8.414;2023-03-23T02:32:12;98833.84;;;18.60;53.24
56514;BME280;62152;52.078;8.414;2023-03-23T02:36:30;98844.03;;;18.59;53.17
56514;BME280;62152;52.078;8.414;2023-03-23T02:40:41;98833.84;;;18.60;53.28
56514;BME280;62152;52.078;8.414;2023-03-23T02:44:47;98829.13;;;18.61;53.35
56514;BME280;62152;52.078;8.414;2023-03-23T02:48:54;98842.09;;;18.60;53.09
56514;BME280;62152;52.078;8.414;2023-03-23T02:53:00;98837.75;;;18.59;53.30
56514;BME280;62152;52.078;8.414;2023-03-23T02:57:05;98822.84;;;18.60;52.60
56514;BME280;62152;52.078;8.414;2023-03-23T03:05:40;98844.03;;;18.59;53.16
56514;BME280;62152;52.078;8.414;2023-03-23T03:09:52;98836.19;;;18.58;52.55
56514;BME280;62152;52.078;8.414;2023-03-23T03:14:04;98821.28;;;18.59;52.86
56514;BME280;62152;52.078;8.414;2023-03-23T03:18:14;98839.34;;;18.60;53.16
56514;BME280;62152;52.078;8.414;2023-03-23T03:22:20;98823.25;;;18.58;52.90
56514;BME280;62152;52.078;8.414;2023-03-23T03:26:26;98820.50;;;18.58;53.19
56514;BME280;62152;52.078;8.414;2023-03-23T03:30:37;98813.44;;;18.57;52.91
56514;BME280;62152;52.078;8.414;2023-03-23T03:34:39;98820.50;;;18.58;53.21
56514;BME280;62152;52.078;8.414;2023-03-23T03:38:41;98814.22;;;18.58;53.03
56514;BME280;62152;52.078;8.414;2023-03-23T03:42:45;98770.28;;;18.58;53.11
56514;BME280;62152;52.078;8.414;2023-03-23T03:46:47;98776.97;;;18.57;53.15
56514;BME280;62152;52.078;8.414;2023-03-23T03:50:47;98795.00;;;18.58;52.86
56514;BME280;62152;52.078;8.414;2023-03-23T03:54:48;98798.94;;;18.57;52.76
56514;BME280;62152;52.078;8.414;2023-03-23T03:58:51;98793.44;;;18.57;52.91
56514;BME280;62152;52.078;8.414;2023-03-23T04:03:11;98787.94;;;18.57;52.87
56514;BME280;62152;52.078;8.414;2023-03-23T04:07:19;98788.72;;;18.57;52.73
56514;BME280;62152;52.078;8.414;2023-03-23T04:11:20;98772.25;;;18.57;52.62
56514;BME280;62152;52.078;8.414;2023-03-23T04:15:23;98787.94;;;18.57;53.17
56514;BME280;62152;52.078;8.414;2023-03-23T04:19:25;98781.31;;;18.54;53.02
56514;BME280;62152;52.078;8.414;2023-03-23T04:23:29;98801.69;;;18.57;52.94
56514;BME280;62152;52.078;8.414;2023-03-23T04:27:34;98793.44;;;18.57;53.07
56514;BME280;62152;52.078;8.414;2023-03-23T04:31:38;98806.41;;;18.56;53.29
56514;BME280;62152;52.078;8.414;2023-03-23T04:36:14;98815.41;;;18.57;52.81
56514;BME280;62152;52.078;8.414;2023-03-23T04:40:23;98804.44;;;18.57;52.99
56514;BME280;62152;52.078;8.414;2023-03-23T04:44:36;98817.38;;;18.56;53.19
56514;BME280;62152;52.078;8.414;2023-03-23T04:48:45;98818.16;;;18.57;52.80
56514;BME280;62152;52.078;8.414;2023-03-23T04:52:57;98797.38;;;18.56;53.39
56514;BME280;62152;52.078;8.414;2023-03-23T04:56:59;98809.13;;;18.56;53.28
56514;BME280;62152;52.078;8.414;2023-03-23T05:01:01;98812.66;;;18.57;52.54
56514;BME280;62152;52.078;8.414;2023-03-23T05:05:04;98803.28;;;18.51;52.19
56514;BME280;62152;52.078;8.414;2023-03-23T05:09:05;98801.53;;;18.19;52.65
56514;BME280;62152;52.078;8.414;2023-03-23T05:13:06;98802.19;;;18.38;52.70
56514;BME280;62152;52.078;8.414;2023-03-23T05:17:08;98808.41;;;18.49;52.17
56514;BME280;62152;52.078;8.414;2023-03-23T05:21:11;98793.03;;;18.58;51.88
56514;BME280;62152;52.078;8.414;2023-03-23T05:25:16;98789.13;;;18.56;51.85
56514;BME280;62152;52.078;8.414;2023-03-23T05:29:21;98801.31;;;18.55;52.19
56514;BME280;62152;52.078;8.414;2023-03-23T05:33:30;98786.81;;;18.54;51.95
56514;BME280;62152;52.078;8.414;2023-03-23T05:37:44;98786.81;;;18.54;52.28
56514;BME280;62152;52.078;8.414;2023-03-23T05:41:46;98797.00;;;18.54;51.98
56514;BME280;62152;52.078;8.414;2023-03-23T05:45:48;98793.06;;;18.55;52.10
56514;BME280;62152;52.078;8.414;2023-03-23T05:49:49;98789.97;;;18.53;52.71
56514;BME280;62152;52.078;8.414;2023-03-23T05:53:54;98795.03;;;18.54;52.17
56514;BME280;62152;52.078;8.414;2023-03-23T05:57:54;98806.44;;;18.53;52.75
56514;BME280;62152;52.078;8.414;2023-03-23T06:02:06;98813.47;;;18.54;52.21
56514;BME280;62152;52.078;8.414;2023-03-23T06:06:09;98800.94;;;18.53;52.09
56514;BME280;62152;52.078;8.414;2023-03-23T06:10:23;98811.91;;;18.53;52.13
56514;BME280;62152;52.078;8.414;2023-03-23T06:14:30;98823.69;;;18.53;52.22
56514;BME280;62152;52.078;8.414;2023-03-23T06:18:31;98818.97;;;18.54;52.02
56514;BME280;62152;52.078;8.414;2023-03-23T06:22:43;98825.25;;;18.54;52.08
56514;BME280;62152;52.078;8.414;2023-03-23T06:26:50;98843.28;;;18.55;52.19
56514;BME280;62152;52.078;8.414;2023-03-23T06:30:55;98832.28;;;18.55;52.35
56514;BME280;62152;52.078;8.414;2023-03-23T06:34:59;98832.28;;;18.55;52.69
56514;BME280;62152;52.078;8.414;2023-03-23T06:39:23;98829.56;;;18.55;52.78
56514;BME280;62152;52.078;8.414;2023-03-23T06:43:37;98842.88;;;18.57;52.46
56514;BME280;62152;52.078;8.414;2023-03-23T06:47:46;98850.31;;;18.56;52.34
56514;BME280;62152;52.078;8.414;2023-03-23T06:51:47;98842.88;;;18.57;52.69
56514;BME280;62152;52.078;8.414;2023-03-23T06:55:48;98845.63;;;18.57;52.01
56514;BME280;62152;52.078;8.414;2023-03-23T06:59:52;98849.91;;;18.58;52.53
56514;BME280;62152;52.078;8.414;2023-03-23T07:03:55;98845.63;;;18.57;52.19
56514;BME280;62152;52.078;8.414;2023-03-23T07:08:07;98840.13;;;18.57;52.27
56514;BME280;62152;52.078;8.414;2023-03-23T07:12:11;98844.44;;;18.58;52.71
56514;BME280;62152;52.078;8.414;2023-03-23T07:16:20;98848.72;;;18.59;52.52
56514;BME280;62152;52.078;8.414;2023-03-23T07:20:25;98838.53;;;18.59;52.63
56514;BME280;62152;52.078;8.414;2023-03-23T07:24:26;98843.25;;;18.59;52.38
56514;BME280;62152;52.078;8.414;2023-03-23T07:28:36;98843.63;;;18.61;52.42
56514;BME280;62152;52.078;8.414;2023-03-23T07:32:46;98838.94;;;18.62;52.53
56514;BME280;62152;52.078;8.414;2023-03-23T07:36:48;98836.97;;;18.62;52.64
56514;BME280;62152;52.078;8.414;2023-03-23T07:40:49;98856.97;;;18.63;52.37
56514;BME280;62152;52.078;8.414;2023-03-23T07:44:52;98854.22;;;18.63;52.45
56514;BME280;62152;52.078;8.414;2023-03-23T07:48:54;98860.50;;;18.63;52.03
56514;BME280;62152;52.078;8.414;2023-03-23T07:52:59;98863.66;;;18.62;52.77
56514;BME280;62152;52.078;8.414;2023-03-23T07:57:04;98869.91;;;18.62;52.04
56514;BME280;62152;52.078;8.414;2023-03-23T08:01:10;98876.59;;;18.61;52.43
56514;BME280;62152;52.078;8.414;2023-03-23T08:05:13;98884.84;;;18.61;52.13
56514;BME280;62152;52.078;8.414;2023-03-23T08:09:38;98878.94;;;18.63;52.38
56514;BME280;62152;52.078;8.414;2023-03-23T08:13:56;98883.66;;;18.62;52.25
56514;BME280;62152;52.078;8.414;2023-03-23T08:18:19;98871.47;;;18.63;52.28
56514;BME280;62152;52.078;8.414;2023-03-23T08:22:42;98874.59;;;18.65;52.13
56514;BME280;62152;52.078;8.414;2023-03-23T08:27:00;98881.69;;;18.66;52.02
56514;BME280;62152;52.078;8.414;2023-03-23T08:31:25;98882.06;;;18.65;52.66
56514;BME280;62152;52.078;8.414;2023-03-23T08:35:45;98883.25;;;18.64;52.45
56514;BME280;62152;52.078;8.414;2023-03-23T08:40:03;98880.13;;;18.62;52.27
56514;BME280;62152;52.078;8.414;2023-03-23T08:44:26;98893.03;;;18.65;52.45
56514;BME280;62152;52.078;8.414;2023-03-23T08:48:42;98878.53;;;18.64;52.14
56514;BME280;62152;52.078;8.414;2023-03-23T08:53:01;98885.22;;;18.63;52.42
56514;BME280;62152;52.078;8.414;2023-03-23T08:57:15;98887.16;;;18.63;52.08
56514;BME280;62152;52.078;8.414;2023-03-23T09:01:42;98903.66;;;18.63;52.30
56514;BME280;62152;52.078;8.414;2023-03-23T09:06:02;98908.34;;;18.62;52.36
56514;BME280;62152;52.078;8.414;2023-03-23T09:10:17;98905.63;;;18.62;51.96
56514;BME280;62152;52.078;8.414;2023-03-23T09:14:20;98914.63;;;18.63;52.66
56514;BME280;62152;52.078;8.414;2023-03-23T09:18:22;98908.34;;;18.62;52.68
56514;BME280;62152;52.078;8.414;2023-03-23T09:22:22;98908.72;;;18.64;52.71
56514;BME280;62152;52.078;8.414;2023-03-23T09:26:23;98913.81;;;18.66;52.34
56514;BME280;62152;52.078;8.414;2023-03-23T09:30:28;98916.56;;;18.66;52.15
56514;BME280;62152;52.078;8.414;2023-03-23T09:34:30;98924.03;;;18.65;52.08
56514;BME280;62152;52.078;8.414;2023-03-23T09:38:31;98936.97;;;18.65;52.04
56514;BME280;62152;52.078;8.414;2023-03-23T09:42:58;98940.91;;;18.64;52.53
56514;BME280;62152;52.078;8.414;2023-03-23T09:47:16;98949.16;;;18.64;52.59
56514;BME280;62152;52.078;8.414;2023-03-23T09:51:35;98946.41;;;18.64;52.28
56514;BME280;62152;52.078;8.414;2023-03-23T09:55:37;98958.56;;;18.63;52.46
56514;BME280;62152;52.078;8.414;2023-03-23T09:59:46;98944.84;;;18.63;52.59
56514;BME280;62152;52.078;8.414;2023-03-23T10:03:55;98958.56;;;18.63;52.36
56514;BME280;62152;52.078;8.414;2023-03-23T10:08:09;98960.13;;;18.64;52.63
56514;BME280;62152;52.078;8.414;2023-03-23T10:12:21;98964.84;;;18.63;52.30
56514;BME280;62152;52.078;8.414;2023-03-23T10:16:33;98945.22;;;18.65;52.74
56514;BME280;62152;52.078;8.414;2023-03-23T10:20:44;98951.50;;;18.65;52.12
56514;BME280;62152;52.078;8.414;2023-03-23T10:24:51;98941.69;;;18.64;52.52
56514;BME280;62152;52.078;8.414;2023-03-23T10:29:08;98934.63;;;18.63;52.56
56514;BME280;62152;52.078;8.414;2023-03-23T10:33:20;98925.63;;;18.66;52.42
56514;BME280;62152;52.078;8.414;2023-03-23T10:37:31;98929.94;;;18.67;52.16
56514;BME280;62152;52.078;8.414;2023-03-23T10:41:37;98956.19;;;18.65;52.32
56514;BME280;62152;52.078;8.414;2023-03-23T10:45:40;98998.19;;;18.65;52.15
56514;BME280;62152;52.078;8.414;2023-03-23T10:49:48;99027.22;;;18.66;52.30
56514;BME280;62152;52.078;8.414;2023-03-23T10:53:58;99031.56;;;18.67;52.19
56514;BME280;62152;52.078;8.414;2023-03-23T10:58:03;99026.06;;;18.67;51.85
56514;BME280;62152;52.078;8.414;2023-03-23T11:02:15;99037.06;;;18.67;52.71
56514;BME280;62152;52.078;8.414;2023-03-23T11:06:22;99033.88;;;18.65;52.43
56514;BME280;62152;52.078;8.414;2023-03-23T11:10:33;99053.09;;;18.65;52.44
56514;BME280;62152;52.078;8.414;2023-03-23T11:14:37;99039.38;;;18.65;52.42
56514;BME280;62152;52.078;8.414;2023-03-23T11:18:40;99037.81;;;18.64;52.26
56514;BME280;62152;52.078;8.414;2023-03-23T11:22:42;99026.81;;;18.64;52.16
56514;BME280;62152;52.078;8.414;2023-03-23T11:26:45;99054.28;;;18.64;52.19
56514;BME280;62152;52.078;8.414;2023-03-23T11:30:47;99049.97;;;18.63;52.53
56514;BME280;62152;52.078;8.414;2023-03-23T11:34:52;99044.88;;;18.65;52.50
56514;BME280;62152;52.078;8.414;2023-03-23T11:38:55;99060.19;;;18.66;52.16
56514;BME280;62152;52.078;8.414;2023-03-23T11:43:00;99070.75;;;18.64;52.18
56514;BME280;62152;52.078;8.414;2023-03-23T11:47:17;99078.63;;;18.62;52.18
56514;BME280;62152;52.078;8.414;2023-03-23T11:51:36;99090.00;;;18.64;52.09
56514;BME280;62152;52.078;8.414;2023-03-23T11:55:55;99081.34;;;18.66;52.48
56514;BME280;62152;52.078;8.414;2023-03-23T12:00:14;99069.22;;;18.67;52.10
56514;BME280;62152;52.078;8.414;2023-03-23T12:04:35;99057.44;;;18.66;52.24
56514;BME280;62152;52.078;8.414;2023-03-23T12:08:55;99059.78;;;18.64;52.52
56514;BME280;62152;52.078;8.414;2023-03-23T12:13:26;99055.47;;;18.63;52.20
56514;BME280;62152;52.078;8.414;2023-03-23T12:17:54;99054.28;;;18.64;52.22
56514;BME280;62152;52.078;8.414;2023-03-23T12:22:12;99060.19;;;18.66;52.61
56514;BME280;62152;52.078;8.414;2023-03-23T12:26:25;99061.75;;;18.64;52.81
56514;BME280;62152;52.078;8.414;2023-03-23T12:30:36;99075.47;;;18.64;52.58
56514;BME280;62152;52.078;8.414;2023-03-23T12:34:51;99074.28;;;18.65;52.39
56514;BME280;62152;52.078;8.414;2023-03-23T12:43:48;99053.13;;;18.62;52.58
56514;BME280;62152;52.078;8.414;2023-03-23T12:47:58;99063.72;;;18.63;52.58
56514;BME280;62152;52.078;8.414;2023-03-23T12:52:10;99059.78;;;18.64;52.32
56514;BME280;62152;52.078;8.414;2023-03-23T12:56:22;99057.03;;;18.64;52.65
56514;BME280;62152;52.078;8.414;2023-03-23T13:00:30;99046.81;;;18.65;52.50
56514;BME280;62152;52.078;8.414;2023-03-23T13:04:42;99065.69;;;18.66;52.33
56514;BME280;62152;52.078;8.414;2023-03-23T13:08:53;99059.03;;;18.67;52.50
56514;BME280;62152;52.078;8.414;2023-03-23T13:12:59;99047.25;;;18.70;52.14
56514;BME280;62152;52.078;8.414;2023-03-23T13:17:18;99062.16;;;18.69;52.06
56514;BME280;62152;52.078;8.414;2023-03-23T13:21:31;99071.97;;;18.70;52.38
56514;BME280;62152;52.078;8.414;2023-03-23T13:25:47;99054.28;;;18.71;52.41
56514;BME280;62152;52.078;8.414;2023-03-23T13:29:51;99045.66;;;18.73;52.34
56514;BME280;62152;52.078;8.414;2023-03-23T13:33:58;99044.09;;;18.72;52.01
56514;BME280;62152;52.078;8.414;2023-03-23T13:38:13;99049.59;;;18.68;51.91
56514;BME280;62152;52.078;8.414;2023-03-23T13:42:23;99051.56;;;18.68;52.40
56514;BME280;62152;52.078;8.414;2023-03-23T13:46:27;99075.84;;;18.66;52.53
56514;BME280;62152;52.078;8.414;2023-03-23T13:50:30;99046.44;;;18.66;52.28
56514;BME280;62152;52.078;8.414;2023-03-23T13:54:46;99035.06;;;18.64;52.64
56514;BME280;62152;52.078;8.414;2023-03-23T13:58:51;99035.84;;;18.65;52.49
56514;BME280;62152;52.078;8.414;2023-03-23T14:03:00;99036.63;;;18.65;52.04
56514;BME280;62152;52.078;8.414;2023-03-23T14:07:10;99038.63;;;18.68;52.13
56514;BME280;62152;52.078;8.414;2023-03-23T14:11:19;99029.59;;;18.68;52.07
56514;BME280;62152;52.078;8.414;2023-03-23T14:15:28;99047.25;;;18.67;52.01
56514;BME280;62152;52.078;8.414;2023-03-23T14:19:30;99040.16;;;18.66;52.19
56514;BME280;62152;52.078;8.414;2023-03-23T14:23:33;99048.81;;;18.68;52.55
56514;BME280;62152;52.078;8.414;2023-03-23T14:27:34;99049.19;;;18.70;52.42
56514;BME280;62152;52.078;8.414;2023-03-23T14:31:37;99045.69;;;18.69;51.90
56514;BME280;62152;52.078;8.414;2023-03-23T14:35:43;99048.00;;;18.71;52.47
56514;BME280;62152;52.078;8.414;2023-03-23T14:39:46;99037.03;;;18.71;52.13
56514;BME280;62152;52.078;8.414;2023-03-23T14:43:49;99039.38;;;18.72;51.80
56514;BME280;62152;52.078;8.414;2023-03-23T14:47:54;99039.38;;;18.72;52.21
56514;BME280;62152;52.078;8.414;2023-03-23T14:52:03;99036.25;;;18.74;52.11
56514;BME280;62152;52.078;8.414;2023-03-23T14:56:14;99043.31;;;18.75;51.71
56514;BME280;62152;52.078;8.414;2023-03-23T15:00:22;99006.03;;;18.74;52.26
56514;BME280;62152;52.078;8.414;2023-03-23T15:04:26;99030.34;;;18.75;51.98
56514;BME280;62152;52.078;8.414;2023-03-23T15:08:29;99053.50;;;18.74;52.50
56514;BME280;62152;52.078;8.414;2023-03-23T15:12:34;99049.19;;;18.73;51.79
56514;BME280;62152;52.078;8.414;2023-03-23T15:16:36;99049.97;;;18.70;52.28
56514;BME280;62152;52.078;8.414;2023-03-23T15:20:47;99044.13;;;18.68;52.48
56514;BME280;62152;52.078;8.414;2023-03-23T15:24:51;99053.53;;;18.67;52.57
56514;BME280;62152;52.078;8.414;2023-03-23T15:29:01;99058.25;;;18.67;52.05
56514;BME280;62152;52.078;8.414;2023-03-23T15:33:10;99038.22;;;18.66;51.97
56514;BME280;62152;52.078;8.414;2023-03-23T15:37:20;99037.06;;;18.67;52.01
56514;BME280;62152;52.078;8.414;2023-03-23T15:41:27;99022.50;;;18.63;52.35
56514;BME280;62152;52.078;8.414;2023-03-23T15:45:30;98998.25;;;18.44;52.71
56514;BME280;62152;52.078;8.414;2023-03-23T15:49:31;98990.41;;;18.39;52.33
56514;BME280;62152;52.078;8.414;2023-03-23T15:53:36;99011.66;;;18.20;52.85
56514;BME280;62152;52.078;8.414;2023-03-23T15:57:37;98992.47;;;18.13;52.43
56514;BME280;62152;52.078;8.414;2023-03-23T16:01:40;98988.13;;;18.19;52.34
56514;BME280;62152;52.078;8.414;2023-03-23T16:05:43;99008.13;;;18.09;52.52
56514;BME280;62152;52.078;8.414;2023-03-23T16:09:45;99011.25;;;18.18;52.25
56514;BME280;62152;52.078;8.414;2023-03-23T16:13:46;99015.16;;;18.17;52.01
56514;BME280;62152;52.078;8.414;2023-03-23T16:17:47;99022.22;;;18.18;52.04
56514;BME280;62152;52.078;8.414;2023-03-23T16:21:48;99012.06;;;18.01;52.54
56514;BME280;62152;52.078;8.414;2023-03-23T16:25:50;98998.34;;;18.08;52.24
56514;BME280;62152;52.078;8.414;2023-03-23T16:29:51;99000.69;;;18.02;52.43
56514;BME280;62152;52.078;8.414;2023-03-23T16:33:52;98989.34;;;18.00;52.40
56514;BME280;62152;52.078;8.414;2023-03-23T16:37:54;98973.28;;;17.99;52.13
56514;BME280;62152;52.078;8.414;2023-03-23T16:41:58;98974.03;;;18.03;52.43
56514;BME280;62152;52.078;8.414;2023-03-23T16:45:58;98972.09;;;17.96;52.01
56514;BME280;62152;52.078;8.414;2023-03-23T16:49:59;98980.34;;;17.93;51.93
56514;BME280;62152;52.078;8.414;2023-03-23T16:54:00;98995.22;;;17.99;51.90
56514;BME280;62152;52.078;8.414;2023-03-23T16:58:03;99010.91;;;17.98;52.22
56514;BME280;62152;52.078;8.414;2023-03-23T17:02:04;99009.75;;;17.85;52.66
56514;BME280;62152;52.078;8.414;2023-03-23T17:06:05;98992.50;;;17.92;52.20
56514;BME280;62152;52.078;8.414;2023-03-23T17:10:08;99003.84;;;17.83;52.35
56514;BME280;62152;52.078;8.414;2023-03-23T17:14:11;98999.53;;;17.93;52.42
56514;BME280;62152;52.078;8.414;2023-03-23T17:18:13;98992.88;;;18.01;51.92
56514;BME280;62152;52.078;8.414;2023-03-23T17:22:14;99019.13;;;17.98;52.00
56514;BME280;62152;52.078;8.414;2023-03-23T17:26:16;99023.44;;;17.89;52.21
56514;BME280;62152;52.078;8.414;2023-03-23T17:30:19;99025.81;;;17.80;52.78
56514;BME280;62152;52.078;8.414;2023-03-23T17:34:20;99034.00;;;17.58;53.51
56514;BME280;62152;52.078;8.414;2023-03-23T17:38:21;99031.69;;;17.78;53.12
56514;BME280;62152;52.078;8.414;2023-03-23T17:42:22;99056.69;;;17.69;52.71
56514;BME280;62152;52.078;8.414;2023-03-23T17:46:24;99064.19;;;17.90;52.73
56514;BME280;62152;52.078;8.414;2023-03-23T17:50:25;99070.88;;;17.93;52.20
56514;BME280;62152;52.078;8.414;2023-03-23T17:54:26;99064.19;;;17.94;52.00
56514;BME280;62152;52.078;8.414;2023-03-23T17:58:27;99056.34;;;17.96;52.05
56514;BME280;62152;52.078;8.414;2023-03-23T18:02:29;99058.31;;;18.02;51.74
56514;BME280;62152;52.078;8.414;2023-03-23T18:06:30;99052.81;;;18.02;52.17
56514;BME280;62152;52.078;8.414;2023-03-23T18:10:32;99059.88;;;18.07;52.50
56514;BME280;62152;52.078;8.414;2023-03-23T18:14:33;99052.41;;;18.11;52.62
56514;BME280;62152;52.078;8.414;2023-03-23T18:18:35;99045.34;;;18.24;53.18
56514;BME280;62152;52.078;8.414;2023-03-23T18:22:36;99043.78;;;18.34;52.88
56514;BME280;62152;52.078;8.414;2023-03-23T18:26:37;99041.00;;;18.38;54.20
56514;BME280;62152;52.078;8.414;2023-03-23T18:30:38;99043.38;;;18.36;56.72
56514;BME280;62152;52.078;8.414;2023-03-23T18:34:40;99033.91;;;18.51;59.70
56514;BME280;62152;52.078;8.414;2023-03-23T18:38:43;99033.13;;;18.61;60.71
56514;BME280;62152;52.078;8.414;2023-03-23T18:42:45;99024.13;;;18.53;58.18
56514;BME280;62152;52.078;8.414;2023-03-23T18:46:46;99022.16;;;18.50;57.68
56514;BME280;62152;52.078;8.414;2023-03-23T18:50:49;99017.06;;;18.49;57.32
56514;BME280;62152;52.078;8.414;2023-03-23T18:54:52;99018.25;;;18.48;57.71
56514;BME280;62152;52.078;8.414;2023-03-23T18:58:52;99015.88;;;18.50;57.88
56514;BME280;62152;52.078;8.414;2023-03-23T19:02:53;99007.28;;;18.48;57.32
56514;BME280;62152;52.078;8.414;2023-03-23T19:06:55;99008.06;;;18.48;57.36
56514;BME280;62152;52.078;8.414;2023-03-23T19:10:58;99001.78;;;18.48;57.58
56514;BME280;62152;52.078;8.414;2023-03-23T19:15:01;99004.13;;;18.49;56.58
56514;BME280;62152;52.078;8.414;2023-03-23T19:19:03;99002.94;;;18.54;56.83
56514;BME280;62152;52.078;8.414;2023-03-23T19:23:06;99004.84;;;18.64;56.76
56514;BME280;62152;52.078;8.414;2023-03-23T19:27:07;98998.59;;;18.71;56.83
56514;BME280;62152;52.078;8.414;2023-03-23T19:31:08;98983.66;;;18.72;56.91
56514;BME280;62152;52.078;8.414;2023-03-23T19:35:09;98977.38;;;18.75;56.39
56514;BME280;62152;52.078;8.414;2023-03-23T19:39:12;98970.31;;;18.77;57.27
56514;BME280;62152;52.078;8.414;2023-03-23T19:43:12;98961.28;;;18.80;56.33
56514;BME280;62152;52.078;8.414;2023-03-23T19:47:13;98956.56;;;18.81;56.64
56514;BME280;62152;52.078;8.414;2023-03-23T19:51:17;98954.97;;;18.83;57.24
56514;BME280;62152;52.078;8.414;2023-03-23T19:55:21;98950.63;;;18.86;57.43
56514;BME280;62152;52.078;8.414;2023-03-23T19:59:22;98954.56;;;18.89;56.59
56514;BME280;62152;52.078;8.414;2023-03-23T20:03:22;98953.78;;;18.88;55.95
56514;BME280;62152;52.078;8.414;2023-03-23T20:07:23;98955.34;;;18.89;56.03
56514;BME280;62152;52.078;8.414;2023-03-23T20:11:26;98963.16;;;18.91;56.50
56514;BME280;62152;52.078;8.414;2023-03-23T20:15:29;98958.47;;;18.91;57.56
56514;BME280;62152;52.078;8.414;2023-03-23T20:19:30;98954.53;;;18.92;57.35
56514;BME280;62152;52.078;8.414;2023-03-23T20:23:32;98945.09;;;18.93;56.96
56514;BME280;62152;52.078;8.414;2023-03-23T20:27:35;98928.59;;;18.93;56.47
56514;BME280;62152;52.078;8.414;2023-03-23T20:31:39;98930.19;;;18.94;56.67
56514;BME280;62152;52.078;8.414;2023-03-23T20:35:40;98932.13;;;18.94;55.96
56514;BME280;62152;52.078;8.414;2023-03-23T20:39:42;98917.25;;;18.95;55.87
56514;BME280;62152;52.078;8.414;2023-03-23T20:43:44;98912.53;;;18.95;56.12
56514;BME280;62152;52.078;8.414;2023-03-23T20:47:45;98916.03;;;18.96;56.65
56514;BME280;62152;52.078;8.414;2023-03-23T20:51:47;98905.84;;;18.96;56.47
56514;BME280;62152;52.078;8.414;2023-03-23T20:55:49;98896.41;;;18.97;56.16
56514;BME280;62152;52.078;8.414;2023-03-23T20:59:53;98898.34;;;19.00;55.90
56514;BME280;62152;52.078;8.414;2023-03-23T21:03:54;98898.38;;;18.97;55.32
56514;BME280;62152;52.078;8.414;2023-03-23T21:07:55;98894.84;;;18.93;56.33
56514;BME280;62152;52.078;8.414;2023-03-23T21:11:56;98892.56;;;18.88;55.79
56514;BME280;62152;52.078;8.414;2023-03-23T21:15:59;98891.38;;;18.85;55.66
56514;BME280;62152;52.078;8.414;2023-03-23T21:20:00;98876.09;;;18.84;55.60
56514;BME280;62152;52.078;8.414;2023-03-23T21:24:02;98879.25;;;18.82;55.77
56514;BME280;62152;52.078;8.414;2023-03-23T21:28:04;98878.06;;;18.80;56.03
56514;BME280;62152;52.078;8.414;2023-03-23T21:32:06;98867.88;;;18.80;55.96
56514;BME280;62152;52.078;8.414;2023-03-23T21:36:07;98861.56;;;18.80;55.86
56514;BME280;62152;52.078;8.414;2023-03-23T21:40:14;98865.50;;;18.79;55.81
56514;BME280;62152;52.078;8.414;2023-03-23T21:44:16;98862.00;;;18.78;55.46
56514;BME280;62152;52.078;8.414;2023-03-23T21:48:18;98847.88;;;18.76;55.79
56514;BME280;62152;52.078;8.414;2023-03-23T21:52:19;98841.59;;;18.76;55.50
56514;BME280;62152;52.078;8.414;2023-03-23T21:56:22;98837.31;;;18.75;55.40
56514;BME280;62152;52.078;8.414;2023-03-23T22:00:25;98828.28;;;18.74;55.45